OYN weather

Ouyen Airport
Victoria, Australia

Public forecast

Using degrees Celsius for public forecast. Weather courtesy of forecast.io.

Closest aviation weather report (METAR) to Ouyen Airport

Closest report is Mildura Airport, 53.3 nm (98.7 km) NNW. Retrieved 2020/04/02 07:00 UTC (1 hour ago):

YMIA 020700Z AUTO 28007KT 9999 // NCD 21/13 Q1009

Closest aviation forecast (TAF) to Ouyen Airport

Forecast is more than 6 hours old.

Closest forecast is Adelaide International Airport, 188.2 nm (348.5 km) W. Retrieved 2020-04-02 00:00 UTC (8 hours ago):

TAF YPAD 012337Z 0200/0306 33006KT CAVOK FM020200 24010KT CAVOK FM021100 16005KT CAVOK FM021400 VRB05KT 9999 SCT020 FM022200 02008KT 9999 FEW025 FM030100 32014KT 9999 BKN025 FM030400 27020KT 9999 -SHRA BKN030 INTER 0303/0306 5000 SHRA BKN020